sensor_id;sensor_type;location;lat;lon;timestamp;P1;durP1;ratioP1;P2;durP2;ratioP2
23474;SDS011;11910;52.086;21.066;2023-02-26T00:01:40;4.97;;;3.88;;
23474;SDS011;11910;52.086;21.066;2023-02-26T00:04:06;5.03;;;3.88;;
23474;SDS011;11910;52.086;21.066;2023-02-26T00:06:33;5.38;;;3.90;;
23474;SDS011;11910;52.086;21.066;2023-02-26T00:09:02;5.15;;;3.80;;
23474;SDS011;11910;52.086;21.066;2023-02-26T00:11:29;5.75;;;3.70;;
23474;SDS011;11910;52.086;21.066;2023-02-26T00:13:55;5.07;;;4.20;;
23474;SDS011;11910;52.086;21.066;2023-02-26T00:18:57;4.85;;;4.10;;
23474;SDS011;11910;52.086;21.066;2023-02-26T00:21:27;5.15;;;3.75;;
23474;SDS011;11910;52.086;21.066;2023-02-26T00:23:53;4.78;;;3.90;;
23474;SDS011;11910;52.086;21.066;2023-02-26T00:26:20;5.78;;;4.00;;
23474;SDS011;11910;52.086;21.066;2023-02-26T00:28:47;4.28;;;3.88;;
23474;SDS011;11910;52.086;21.066;2023-02-26T00:31:14;5.60;;;4.32;;
23474;SDS011;11910;52.086;21.066;2023-02-26T00:33:41;5.65;;;4.00;;
23474;SDS011;11910;52.086;21.066;2023-02-26T00:38:45;4.10;;;3.40;;
23474;SDS011;11910;52.086;21.066;2023-02-26T00:41:25;4.72;;;3.85;;
23474;SDS011;11910;52.086;21.066;2023-02-26T00:43:52;4.63;;;3.10;;
23474;SDS011;11910;52.086;21.066;2023-02-26T00:46:41;3.88;;;3.22;;
23474;SDS011;11910;52.086;21.066;2023-02-26T00:52:00;4.85;;;3.30;;
23474;SDS011;11910;52.086;21.066;2023-02-26T00:54:29;3.70;;;3.10;;
23474;SDS011;11910;52.086;21.066;2023-02-26T00:56:57;3.85;;;2.97;;
23474;SDS011;11910;52.086;21.066;2023-02-26T00:59:23;3.90;;;3.17;;
23474;SDS011;11910;52.086;21.066;2023-02-26T01:01:50;4.43;;;3.42;;
23474;SDS011;11910;52.086;21.066;2023-02-26T01:04:17;5.07;;;3.60;;
23474;SDS011;11910;52.086;21.066;2023-02-26T01:06:46;4.97;;;3.65;;
23474;SDS011;11910;52.086;21.066;2023-02-26T01:11:50;4.30;;;3.28;;
23474;SDS011;11910;52.086;21.066;2023-02-26T01:14:17;5.10;;;3.55;;
23474;SDS011;11910;52.086;21.066;2023-02-26T01:16:49;4.43;;;3.45;;
23474;SDS011;11910;52.086;21.066;2023-02-26T01:19:29;4.15;;;3.25;;
23474;SDS011;11910;52.086;21.066;2023-02-26T01:22:02;4.40;;;3.30;;
23474;SDS011;11910;52.086;21.066;2023-02-26T01:24:41;3.58;;;3.10;;
23474;SDS011;11910;52.086;21.066;2023-02-26T01:27:07;5.80;;;3.72;;
23474;SDS011;11910;52.086;21.066;2023-02-26T01:29:33;3.58;;;3.00;;
23474;SDS011;11910;52.086;21.066;2023-02-26T01:32:11;3.83;;;3.20;;
23474;SDS011;11910;52.086;21.066;2023-02-26T01:35:12;3.63;;;3.00;;
23474;SDS011;11910;52.086;21.066;2023-02-26T01:43:44;3.65;;;3.08;;
23474;SDS011;11910;52.086;21.066;2023-02-26T01:46:43;3.83;;;3.20;;
23474;SDS011;11910;52.086;21.066;2023-02-26T01:49:29;3.67;;;3.03;;
23474;SDS011;11910;52.086;21.066;2023-02-26T01:51:56;4.20;;;3.00;;
23474;SDS011;11910;52.086;21.066;2023-02-26T01:54:24;4.25;;;3.30;;
23474;SDS011;11910;52.086;21.066;2023-02-26T01:57:06;3.90;;;3.13;;
23474;SDS011;11910;52.086;21.066;2023-02-26T01:59:37;4.07;;;3.03;;
23474;SDS011;11910;52.086;21.066;2023-02-26T02:02:07;4.60;;;3.50;;
23474;SDS011;11910;52.086;21.066;2023-02-26T02:04:34;3.63;;;3.05;;
23474;SDS011;11910;52.086;21.066;2023-02-26T02:07:01;4.70;;;3.35;;
23474;SDS011;11910;52.086;21.066;2023-02-26T02:09:29;4.60;;;3.25;;
23474;SDS011;11910;52.086;21.066;2023-02-26T02:14:43;4.78;;;3.53;;
23474;SDS011;11910;52.086;21.066;2023-02-26T02:21:10;4.00;;;3.30;;
23474;SDS011;11910;52.086;21.066;2023-02-26T02:23:41;4.90;;;3.58;;
23474;SDS011;11910;52.086;21.066;2023-02-26T02:26:41;3.97;;;3.42;;
23474;SDS011;11910;52.086;21.066;2023-02-26T02:31:39;6.20;;;3.97;;
23474;SDS011;11910;52.086;21.066;2023-02-26T02:34:29;5.18;;;3.58;;
23474;SDS011;11910;52.086;21.066;2023-02-26T02:37:11;4.93;;;3.58;;
23474;SDS011;11910;52.086;21.066;2023-02-26T02:39:49;4.65;;;3.92;;
23474;SDS011;11910;52.086;21.066;2023-02-26T02:42:37;4.35;;;3.65;;
23474;SDS011;11910;52.086;21.066;2023-02-26T02:45:13;4.43;;;3.63;;
23474;SDS011;11910;52.086;21.066;2023-02-26T02:48:01;5.55;;;3.80;;
23474;SDS011;11910;52.086;21.066;2023-02-26T02:50:36;5.60;;;3.97;;
23474;SDS011;11910;52.086;21.066;2023-02-26T02:53:13;4.88;;;3.70;;
23474;SDS011;11910;52.086;21.066;2023-02-26T02:55:42;4.60;;;3.90;;
23474;SDS011;11910;52.086;21.066;2023-02-26T02:58:14;4.93;;;4.07;;
23474;SDS011;11910;52.086;21.066;2023-02-26T03:00:45;5.25;;;3.65;;
23474;SDS011;11910;52.086;21.066;2023-02-26T03:03:19;5.10;;;3.90;;
23474;SDS011;11910;52.086;21.066;2023-02-26T03:06:07;5.93;;;3.80;;
23474;SDS011;11910;52.086;21.066;2023-02-26T03:08:34;4.35;;;3.58;;
23474;SDS011;11910;52.086;21.066;2023-02-26T03:11:02;3.88;;;3.35;;
23474;SDS011;11910;52.086;21.066;2023-02-26T03:13:28;4.63;;;3.85;;
23474;SDS011;11910;52.086;21.066;2023-02-26T03:21:28;4.45;;;3.58;;
23474;SDS011;11910;52.086;21.066;2023-02-26T03:24:07;4.90;;;3.85;;
23474;SDS011;11910;52.086;21.066;2023-02-26T03:26:42;5.03;;;3.75;;
23474;SDS011;11910;52.086;21.066;2023-02-26T03:29:36;5.55;;;3.97;;
23474;SDS011;11910;52.086;21.066;2023-02-26T03:32:20;5.05;;;3.65;;
23474;SDS011;11910;52.086;21.066;2023-02-26T03:35:16;4.43;;;3.70;;
23474;SDS011;11910;52.086;21.066;2023-02-26T03:37:47;4.35;;;3.67;;
23474;SDS011;11910;52.086;21.066;2023-02-26T03:40:18;4.72;;;3.90;;
23474;SDS011;11910;52.086;21.066;2023-02-26T03:42:56;4.70;;;3.90;;
23474;SDS011;11910;52.086;21.066;2023-02-26T03:45:30;3.67;;;3.10;;
23474;SDS011;11910;52.086;21.066;2023-02-26T03:47:58;3.67;;;3.25;;
23474;SDS011;11910;52.086;21.066;2023-02-26T03:50:27;4.40;;;3.70;;
23474;SDS011;11910;52.086;21.066;2023-02-26T03:52:58;4.22;;;3.50;;
23474;SDS011;11910;52.086;21.066;2023-02-26T03:58:43;4.68;;;3.55;;
23474;SDS011;11910;52.086;21.066;2023-02-26T04:01:12;4.15;;;3.47;;
23474;SDS011;11910;52.086;21.066;2023-02-26T04:03:54;4.50;;;3.33;;
23474;SDS011;11910;52.086;21.066;2023-02-26T04:06:28;3.95;;;3.22;;
23474;SDS011;11910;52.086;21.066;2023-02-26T04:08:56;3.70;;;3.15;;
23474;SDS011;11910;52.086;21.066;2023-02-26T04:11:22;4.13;;;3.53;;
23474;SDS011;11910;52.086;21.066;2023-02-26T04:13:49;4.35;;;3.55;;
23474;SDS011;11910;52.086;21.066;2023-02-26T04:16:15;4.70;;;3.53;;
23474;SDS011;11910;52.086;21.066;2023-02-26T04:18:42;4.60;;;3.40;;
23474;SDS011;11910;52.086;21.066;2023-02-26T04:21:15;4.82;;;3.72;;
23474;SDS011;11910;52.086;21.066;2023-02-26T04:23:42;4.88;;;3.60;;
23474;SDS011;11910;52.086;21.066;2023-02-26T04:26:08;3.92;;;3.15;;
23474;SDS011;11910;52.086;21.066;2023-02-26T04:28:34;4.00;;;3.30;;
23474;SDS011;11910;52.086;21.066;2023-02-26T04:31:01;4.57;;;3.50;;
23474;SDS011;11910;52.086;21.066;2023-02-26T04:33:28;3.88;;;3.13;;
23474;SDS011;11910;52.086;21.066;2023-02-26T04:35:55;4.15;;;3.20;;
23474;SDS011;11910;52.086;21.066;2023-02-26T04:38:21;3.95;;;3.30;;
23474;SDS011;11910;52.086;21.066;2023-02-26T04:40:47;4.22;;;3.10;;
23474;SDS011;11910;52.086;21.066;2023-02-26T04:43:14;3.85;;;3.10;;
23474;SDS011;11910;52.086;21.066;2023-02-26T04:45:39;3.80;;;3.25;;
23474;SDS011;11910;52.086;21.066;2023-02-26T04:48:05;3.67;;;3.17;;
23474;SDS011;11910;52.086;21.066;2023-02-26T04:50:31;3.92;;;2.95;;
23474;SDS011;11910;52.086;21.066;2023-02-26T04:52:56;3.70;;;3.00;;
23474;SDS011;11910;52.086;21.066;2023-02-26T04:55:22;3.78;;;2.90;;
23474;SDS011;11910;52.086;21.066;2023-02-26T04:57:47;3.97;;;3.22;;
23474;SDS011;11910;52.086;21.066;2023-02-26T05:00:13;3.80;;;2.90;;
23474;SDS011;11910;52.086;21.066;2023-02-26T05:02:39;3.45;;;2.90;;
23474;SDS011;11910;52.086;21.066;2023-02-26T05:05:05;4.47;;;2.78;;
23474;SDS011;11910;52.086;21.066;2023-02-26T05:07:31;3.85;;;2.70;;
23474;SDS011;11910;52.086;21.066;2023-02-26T05:09:57;2.90;;;2.40;;
23474;SDS011;11910;52.086;21.066;2023-02-26T05:12:22;3.55;;;2.50;;
23474;SDS011;11910;52.086;21.066;2023-02-26T05:14:48;3.33;;;2.40;;
23474;SDS011;11910;52.086;21.066;2023-02-26T05:17:13;3.63;;;2.58;;
23474;SDS011;11910;52.086;21.066;2023-02-26T05:19:39;4.70;;;2.40;;
23474;SDS011;11910;52.086;21.066;2023-02-26T05:22:05;3.00;;;2.45;;
23474;SDS011;11910;52.086;21.066;2023-02-26T05:24:30;3.08;;;2.47;;
23474;SDS011;11910;52.086;21.066;2023-02-26T05:26:56;2.60;;;2.03;;
23474;SDS011;11910;52.086;21.066;2023-02-26T05:29:21;4.10;;;2.80;;
23474;SDS011;11910;52.086;21.066;2023-02-26T05:31:47;3.42;;;2.47;;
23474;SDS011;11910;52.086;21.066;2023-02-26T05:34:12;2.83;;;2.30;;
23474;SDS011;11910;52.086;21.066;2023-02-26T05:36:38;3.60;;;2.50;;
23474;SDS011;11910;52.086;21.066;2023-02-26T05:39:04;3.08;;;2.40;;
23474;SDS011;11910;52.086;21.066;2023-02-26T05:41:29;2.80;;;2.40;;
23474;SDS011;11910;52.086;21.066;2023-02-26T05:43:55;3.63;;;2.38;;
23474;SDS011;11910;52.086;21.066;2023-02-26T05:46:20;2.75;;;2.20;;
23474;SDS011;11910;52.086;21.066;2023-02-26T05:48:46;3.60;;;2.38;;
23474;SDS011;11910;52.086;21.066;2023-02-26T05:51:12;2.55;;;2.10;;
23474;SDS011;11910;52.086;21.066;2023-02-26T05:53:37;3.20;;;2.60;;
23474;SDS011;11910;52.086;21.066;2023-02-26T05:56:03;3.22;;;2.75;;
23474;SDS011;11910;52.086;21.066;2023-02-26T05:58:29;3.85;;;2.60;;
23474;SDS011;11910;52.086;21.066;2023-02-26T06:00:57;3.15;;;2.50;;
23474;SDS011;11910;52.086;21.066;2023-02-26T06:03:24;3.50;;;2.25;;
23474;SDS011;11910;52.086;21.066;2023-02-26T06:05:49;3.20;;;2.38;;
23474;SDS011;11910;52.086;21.066;2023-02-26T06:08:15;3.25;;;2.63;;
23474;SDS011;11910;52.086;21.066;2023-02-26T06:10:41;3.20;;;2.70;;
23474;SDS011;11910;52.086;21.066;2023-02-26T06:13:08;3.92;;;2.80;;
23474;SDS011;11910;52.086;21.066;2023-02-26T06:15:34;4.50;;;3.42;;
23474;SDS011;11910;52.086;21.066;2023-02-26T06:18:00;5.05;;;2.85;;
23474;SDS011;11910;52.086;21.066;2023-02-26T06:20:25;3.10;;;2.70;;
23474;SDS011;11910;52.086;21.066;2023-02-26T06:22:52;4.32;;;3.15;;
23474;SDS011;11910;52.086;21.066;2023-02-26T06:25:17;3.25;;;2.42;;
23474;SDS011;11910;52.086;21.066;2023-02-26T06:27:43;3.38;;;2.47;;
23474;SDS011;11910;52.086;21.066;2023-02-26T06:30:08;3.03;;;2.50;;
23474;SDS011;11910;52.086;21.066;2023-02-26T06:32:34;3.72;;;2.25;;
23474;SDS011;11910;52.086;21.066;2023-02-26T06:35:00;4.03;;;2.50;;
23474;SDS011;11910;52.086;21.066;2023-02-26T06:37:26;3.13;;;2.60;;
23474;SDS011;11910;52.086;21.066;2023-02-26T06:39:52;4.35;;;2.35;;
23474;SDS011;11910;52.086;21.066;2023-02-26T06:42:17;4.63;;;2.45;;
23474;SDS011;11910;52.086;21.066;2023-02-26T06:44:43;3.05;;;2.33;;
23474;SDS011;11910;52.086;21.066;2023-02-26T06:47:08;3.28;;;2.30;;
23474;SDS011;11910;52.086;21.066;2023-02-26T06:49:34;2.88;;;2.20;;
23474;SDS011;11910;52.086;21.066;2023-02-26T06:51:59;3.17;;;2.20;;
23474;SDS011;11910;52.086;21.066;2023-02-26T06:54:25;2.80;;;2.00;;
23474;SDS011;11910;52.086;21.066;2023-02-26T06:56:50;3.60;;;2.00;;
23474;SDS011;11910;52.086;21.066;2023-02-26T06:59:16;4.35;;;2.28;;
23474;SDS011;11910;52.086;21.066;2023-02-26T07:01:42;2.38;;;1.92;;
23474;SDS011;11910;52.086;21.066;2023-02-26T07:04:08;2.90;;;2.00;;
23474;SDS011;11910;52.086;21.066;2023-02-26T07:06:33;2.65;;;1.90;;
23474;SDS011;11910;52.086;21.066;2023-02-26T07:08:59;3.53;;;1.90;;
23474;SDS011;11910;52.086;21.066;2023-02-26T07:11:24;2.72;;;1.77;;
23474;SDS011;11910;52.086;21.066;2023-02-26T07:13:50;3.55;;;2.20;;
23474;SDS011;11910;52.086;21.066;2023-02-26T07:16:16;3.78;;;2.17;;
23474;SDS011;11910;52.086;21.066;2023-02-26T07:18:41;4.78;;;2.50;;
23474;SDS011;11910;52.086;21.066;2023-02-26T07:21:07;3.05;;;2.10;;
23474;SDS011;11910;52.086;21.066;2023-02-26T07:23:34;4.13;;;2.35;;
23474;SDS011;11910;52.086;21.066;2023-02-26T07:26:00;3.67;;;2.63;;
23474;SDS011;11910;52.086;21.066;2023-02-26T07:28:26;2.22;;;1.77;;
23474;SDS011;11910;52.086;21.066;2023-02-26T07:30:54;2.85;;;2.00;;
23474;SDS011;11910;52.086;21.066;2023-02-26T07:33:21;2.42;;;1.77;;
23474;SDS011;11910;52.086;21.066;2023-02-26T07:35:47;3.47;;;2.15;;
23474;SDS011;11910;52.086;21.066;2023-02-26T07:38:12;4.68;;;2.30;;
23474;SDS011;11910;52.086;21.066;2023-02-26T07:40:38;4.32;;;2.70;;
23474;SDS011;11910;52.086;21.066;2023-02-26T07:43:03;2.40;;;1.90;;
23474;SDS011;11910;52.086;21.066;2023-02-26T07:45:29;2.70;;;1.60;;
23474;SDS011;11910;52.086;21.066;2023-02-26T07:47:55;4.10;;;2.85;;
23474;SDS011;11910;52.086;21.066;2023-02-26T07:50:20;3.47;;;2.13;;
23474;SDS011;11910;52.086;21.066;2023-02-26T07:52:49;1.90;;;1.63;;
23474;SDS011;11910;52.086;21.066;2023-02-26T07:55:17;3.60;;;1.83;;
23474;SDS011;11910;52.086;21.066;2023-02-26T07:57:43;2.92;;;1.60;;
23474;SDS011;11910;52.086;21.066;2023-02-26T08:00:08;3.45;;;2.88;;
23474;SDS011;11910;52.086;21.066;2023-02-26T08:02:34;2.58;;;1.60;;
23474;SDS011;11910;52.086;21.066;2023-02-26T08:05:00;3.15;;;1.70;;
23474;SDS011;11910;52.086;21.066;2023-02-26T08:07:26;2.55;;;1.70;;
23474;SDS011;11910;52.086;21.066;2023-02-26T08:09:51;2.33;;;1.85;;
23474;SDS011;11910;52.086;21.066;2023-02-26T08:12:17;3.17;;;1.70;;
23474;SDS011;11910;52.086;21.066;2023-02-26T08:14:44;3.50;;;1.55;;
23474;SDS011;11910;52.086;21.066;2023-02-26T08:17:09;2.15;;;1.63;;
23474;SDS011;11910;52.086;21.066;2023-02-26T08:19:35;2.75;;;1.70;;
23474;SDS011;11910;52.086;21.066;2023-02-26T08:22:01;2.72;;;1.65;;
23474;SDS011;11910;52.086;21.066;2023-02-26T08:24:27;1.88;;;1.60;;
23474;SDS011;11910;52.086;21.066;2023-02-26T08:26:53;1.77;;;1.60;;
23474;SDS011;11910;52.086;21.066;2023-02-26T08:29:19;2.42;;;1.80;;
23474;SDS011;11910;52.086;21.066;2023-02-26T08:31:44;2.65;;;1.75;;
23474;SDS011;11910;52.086;21.066;2023-02-26T08:34:10;2.65;;;1.98;;
23474;SDS011;11910;52.086;21.066;2023-02-26T08:36:36;3.30;;;2.28;;
23474;SDS011;11910;52.086;21.066;2023-02-26T08:39:02;3.28;;;2.08;;
23474;SDS011;11910;52.086;21.066;2023-02-26T08:41:27;2.65;;;1.90;;
23474;SDS011;11910;52.086;21.066;2023-02-26T08:43:56;2.53;;;1.90;;
23474;SDS011;11910;52.086;21.066;2023-02-26T08:46:23;2.53;;;1.70;;
23474;SDS011;11910;52.086;21.066;2023-02-26T08:48:48;2.25;;;1.77;;
23474;SDS011;11910;52.086;21.066;2023-02-26T08:51:14;2.22;;;1.65;;
23474;SDS011;11910;52.086;21.066;2023-02-26T08:53:40;3.03;;;2.35;;
23474;SDS011;11910;52.086;21.066;2023-02-26T08:56:09;3.63;;;2.20;;
23474;SDS011;11910;52.086;21.066;2023-02-26T08:58:34;4.20;;;2.10;;
23474;SDS011;11910;52.086;21.066;2023-02-26T09:01:00;3.00;;;2.22;;
23474;SDS011;11910;52.086;21.066;2023-02-26T09:03:26;3.78;;;2.30;;
23474;SDS011;11910;52.086;21.066;2023-02-26T09:05:51;3.22;;;1.90;;
23474;SDS011;11910;52.086;21.066;2023-02-26T09:08:17;2.20;;;1.60;;
23474;SDS011;11910;52.086;21.066;2023-02-26T09:10:44;2.38;;;1.88;;
23474;SDS011;11910;52.086;21.066;2023-02-26T09:13:10;2.72;;;2.05;;
23474;SDS011;11910;52.086;21.066;2023-02-26T09:15:36;1.67;;;1.50;;
23474;SDS011;11910;52.086;21.066;2023-02-26T09:18:04;1.83;;;1.50;;
23474;SDS011;11910;52.086;21.066;2023-02-26T09:20:39;1.98;;;1.40;;
23474;SDS011;11910;52.086;21.066;2023-02-26T09:23:08;2.95;;;1.63;;
23474;SDS011;11910;52.086;21.066;2023-02-26T09:25:34;2.30;;;1.60;;
23474;SDS011;11910;52.086;21.066;2023-02-26T09:28:03;2.38;;;1.75;;
23474;SDS011;11910;52.086;21.066;2023-02-26T09:30:29;4.05;;;1.80;;
23474;SDS011;11910;52.086;21.066;2023-02-26T09:32:55;3.35;;;2.17;;
23474;SDS011;11910;52.086;21.066;2023-02-26T09:35:21;2.15;;;1.65;;
23474;SDS011;11910;52.086;21.066;2023-02-26T09:37:47;2.85;;;1.40;;
23474;SDS011;11910;52.086;21.066;2023-02-26T09:45:54;2.28;;;1.25;;
23474;SDS011;11910;52.086;21.066;2023-02-26T09:48:23;2.05;;;1.02;;
23474;SDS011;11910;52.086;21.066;2023-02-26T09:50:52;2.65;;;1.60;;
23474;SDS011;11910;52.086;21.066;2023-02-26T09:53:23;2.42;;;1.90;;
23474;SDS011;11910;52.086;21.066;2023-02-26T09:56:00;2.70;;;2.05;;
23474;SDS011;11910;52.086;21.066;2023-02-26T09:58:32;2.42;;;1.80;;
23474;SDS011;11910;52.086;21.066;2023-02-26T10:01:18;1.80;;;1.30;;
23474;SDS011;11910;52.086;21.066;2023-02-26T10:06:55;2.40;;;1.60;;
23474;SDS011;11910;52.086;21.066;2023-02-26T10:09:42;1.95;;;1.50;;
23474;SDS011;11910;52.086;21.066;2023-02-26T10:12:17;2.10;;;1.52;;
23474;SDS011;11910;52.086;21.066;2023-02-26T10:31:10;2.40;;;1.80;;
23474;SDS011;11910;52.086;21.066;2023-02-26T10:33:51;2.92;;;1.70;;
23474;SDS011;11910;52.086;21.066;2023-02-26T10:36:29;2.00;;;1.70;;
23474;SDS011;11910;52.086;21.066;2023-02-26T10:39:51;2.53;;;2.10;;
23474;SDS011;11910;52.086;21.066;2023-02-26T10:41:53;2.35;;;1.73;;
23474;SDS011;11910;52.086;21.066;2023-02-26T10:44:32;2.30;;;1.77;;
23474;SDS011;11910;52.086;21.066;2023-02-26T10:52:26;4.25;;;2.47;;
23474;SDS011;11910;52.086;21.066;2023-02-26T10:57:54;3.45;;;2.38;;
23474;SDS011;11910;52.086;21.066;2023-02-26T11:00:26;2.60;;;2.10;;
23474;SDS011;11910;52.086;21.066;2023-02-26T11:02:52;2.45;;;2.08;;
23474;SDS011;11910;52.086;21.066;2023-02-26T11:05:21;4.88;;;2.80;;
23474;SDS011;11910;52.086;21.066;2023-02-26T11:07:53;3.63;;;2.50;;
23474;SDS011;11910;52.086;21.066;2023-02-26T11:12:51;4.07;;;2.70;;
23474;SDS011;11910;52.086;21.066;2023-02-26T11:15:19;3.65;;;2.72;;
23474;SDS011;11910;52.086;21.066;2023-02-26T11:17:47;4.15;;;2.78;;
23474;SDS011;11910;52.086;21.066;2023-02-26T11:23:03;6.25;;;3.33;;
23474;SDS011;11910;52.086;21.066;2023-02-26T11:25:35;4.80;;;3.20;;
23474;SDS011;11910;52.086;21.066;2023-02-26T11:28:44;4.80;;;3.53;;
23474;SDS011;11910;52.086;21.066;2023-02-26T11:30:54;4.85;;;2.88;;
23474;SDS011;11910;52.086;21.066;2023-02-26T11:33:28;4.25;;;3.17;;
23474;SDS011;11910;52.086;21.066;2023-02-26T11:36:04;4.60;;;3.10;;
23474;SDS011;11910;52.086;21.066;2023-02-26T11:38:45;5.15;;;3.72;;
23474;SDS011;11910;52.086;21.066;2023-02-26T11:41:21;4.80;;;3.00;;
23474;SDS011;11910;52.086;21.066;2023-02-26T11:43:48;5.70;;;3.30;;
23474;SDS011;11910;52.086;21.066;2023-02-26T11:46:25;4.38;;;3.15;;
23474;SDS011;11910;52.086;21.066;2023-02-26T11:48:51;4.30;;;2.53;;
23474;SDS011;11910;52.086;21.066;2023-02-26T11:51:20;4.78;;;2.50;;
23474;SDS011;11910;52.086;21.066;2023-02-26T11:53:56;3.35;;;2.28;;
23474;SDS011;11910;52.086;21.066;2023-02-26T11:56:29;3.85;;;2.28;;
23474;SDS011;11910;52.086;21.066;2023-02-26T11:59:01;3.13;;;1.95;;
23474;SDS011;11910;52.086;21.066;2023-02-26T12:01:34;3.85;;;2.00;;
23474;SDS011;11910;52.086;21.066;2023-02-26T12:04:01;2.50;;;1.60;;
23474;SDS011;11910;52.086;21.066;2023-02-26T12:06:27;2.72;;;1.73;;
23474;SDS011;11910;52.086;21.066;2023-02-26T12:08:53;4.35;;;1.80;;
23474;SDS011;11910;52.086;21.066;2023-02-26T12:20:06;2.58;;;1.90;;
23474;SDS011;11910;52.086;21.066;2023-02-26T12:36:57;2.72;;;1.80;;
23474;SDS011;11910;52.086;21.066;2023-02-26T12:47:41;3.25;;;2.03;;
23474;SDS011;11910;52.086;21.066;2023-02-26T12:52:46;4.53;;;2.78;;
23474;SDS011;11910;52.086;21.066;2023-02-26T12:55:41;5.07;;;2.95;;
23474;SDS011;11910;52.086;21.066;2023-02-26T13:00:57;5.45;;;2.30;;
23474;SDS011;11910;52.086;21.066;2023-02-26T13:11:43;6.90;;;3.20;;
23474;SDS011;11910;52.086;21.066;2023-02-26T13:14:37;8.18;;;3.10;;
23474;SDS011;11910;52.086;21.066;2023-02-26T13:20:16;5.57;;;2.67;;
23474;SDS011;11910;52.086;21.066;2023-02-26T13:23:00;4.35;;;2.47;;
23474;SDS011;11910;52.086;21.066;2023-02-26T13:27:57;4.70;;;2.78;;
23474;SDS011;11910;52.086;21.066;2023-02-26T13:33:22;6.97;;;2.80;;
23474;SDS011;11910;52.086;21.066;2023-02-26T13:35:51;4.40;;;2.28;;
23474;SDS011;11910;52.086;21.066;2023-02-26T13:46:22;4.03;;;1.60;;
23474;SDS011;11910;52.086;21.066;2023-02-26T13:49:07;5.32;;;1.90;;
23474;SDS011;11910;52.086;21.066;2023-02-26T13:51:41;2.97;;;1.48;;
23474;SDS011;11910;52.086;21.066;2023-02-26T13:59:30;2.47;;;1.30;;
23474;SDS011;11910;52.086;21.066;2023-02-26T14:01:56;3.63;;;1.70;;
23474;SDS011;11910;52.086;21.066;2023-02-26T14:04:29;5.07;;;2.10;;
23474;SDS011;11910;52.086;21.066;2023-02-26T14:07:10;3.30;;;1.42;;
23474;SDS011;11910;52.086;21.066;2023-02-26T14:09:46;4.07;;;1.80;;
23474;SDS011;11910;52.086;21.066;2023-02-26T14:12:30;3.90;;;1.63;;
23474;SDS011;11910;52.086;21.066;2023-02-26T14:17:37;4.47;;;2.08;;
23474;SDS011;11910;52.086;21.066;2023-02-26T14:20:13;5.32;;;2.70;;
23474;SDS011;11910;52.086;21.066;2023-02-26T14:22:49;3.33;;;1.50;;
23474;SDS011;11910;52.086;21.066;2023-02-26T14:25:34;3.20;;;1.83;;
23474;SDS011;11910;52.086;21.066;2023-02-26T14:31:13;3.33;;;2.30;;
23474;SDS011;11910;52.086;21.066;2023-02-26T14:36:14;4.45;;;1.40;;
23474;SDS011;11910;52.086;21.066;2023-02-26T14:38:56;3.08;;;1.38;;
23474;SDS011;11910;52.086;21.066;2023-02-26T14:44:00;3.55;;;1.80;;
23474;SDS011;11910;52.086;21.066;2023-02-26T14:46:30;3.45;;;2.00;;
23474;SDS011;11910;52.086;21.066;2023-02-26T14:48:57;5.68;;;2.00;;
23474;SDS011;11910;52.086;21.066;2023-02-26T14:51:42;4.82;;;2.10;;
23474;SDS011;11910;52.086;21.066;2023-02-26T14:54:20;6.57;;;2.03;;
23474;SDS011;11910;52.086;21.066;2023-02-26T14:57:17;5.13;;;2.60;;
23474;SDS011;11910;52.086;21.066;2023-02-26T15:00:21;4.50;;;2.08;;
23474;SDS011;11910;52.086;21.066;2023-02-26T15:14:24;4.18;;;2.35;;
23474;SDS011;11910;52.086;21.066;2023-02-26T15:25:37;7.55;;;2.80;;
23474;SDS011;11910;52.086;21.066;2023-02-26T15:28:05;4.90;;;2.58;;
23474;SDS011;11910;52.086;21.066;2023-02-26T15:30:35;5.32;;;1.90;;
23474;SDS011;11910;52.086;21.066;2023-02-26T15:33:03;5.93;;;2.15;;
23474;SDS011;11910;52.086;21.066;2023-02-26T15:35:31;5.63;;;2.42;;
23474;SDS011;11910;52.086;21.066;2023-02-26T15:37:59;5.68;;;2.20;;
23474;SDS011;11910;52.086;21.066;2023-02-26T15:40:27;4.95;;;2.70;;
23474;SDS011;11910;52.086;21.066;2023-02-26T15:42:57;11.85;;;4.00;;
23474;SDS011;11910;52.086;21.066;2023-02-26T15:45:26;6.35;;;2.80;;
23474;SDS011;11910;52.086;21.066;2023-02-26T15:47:58;8.52;;;3.22;;
23474;SDS011;11910;52.086;21.066;2023-02-26T15:50:27;11.05;;;3.33;;
23474;SDS011;11910;52.086;21.066;2023-02-26T15:52:58;5.63;;;2.80;;
23474;SDS011;11910;52.086;21.066;2023-02-26T15:55:27;5.38;;;2.53;;
23474;SDS011;11910;52.086;21.066;2023-02-26T15:57:59;8.02;;;4.07;;
23474;SDS011;11910;52.086;21.066;2023-02-26T16:00:25;7.40;;;3.85;;
23474;SDS011;11910;52.086;21.066;2023-02-26T16:02:53;7.13;;;3.75;;
23474;SDS011;11910;52.086;21.066;2023-02-26T16:05:26;8.80;;;3.60;;
23474;SDS011;11910;52.086;21.066;2023-02-26T16:07:53;7.53;;;3.53;;
23474;SDS011;11910;52.086;21.066;2023-02-26T16:10:39;8.18;;;3.80;;
23474;SDS011;11910;52.086;21.066;2023-02-26T16:13:08;8.38;;;3.90;;
23474;SDS011;11910;52.086;21.066;2023-02-26T16:15:41;8.07;;;4.10;;
23474;SDS011;11910;52.086;21.066;2023-02-26T16:18:10;6.70;;;3.80;;
23474;SDS011;11910;52.086;21.066;2023-02-26T16:20:40;7.28;;;4.20;;
23474;SDS011;11910;52.086;21.066;2023-02-26T16:23:12;7.72;;;4.55;;
23474;SDS011;11910;52.086;21.066;2023-02-26T16:28:31;8.50;;;5.45;;
23474;SDS011;11910;52.086;21.066;2023-02-26T16:31:02;9.77;;;4.90;;
23474;SDS011;11910;52.086;21.066;2023-02-26T16:33:33;9.70;;;5.28;;
23474;SDS011;11910;52.086;21.066;2023-02-26T16:36:10;15.82;;;7.22;;
23474;SDS011;11910;52.086;21.066;2023-02-26T16:41:15;10.90;;;6.15;;
23474;SDS011;11910;52.086;21.066;2023-02-26T16:43:49;16.77;;;9.55;;
23474;SDS011;11910;52.086;21.066;2023-02-26T16:48:57;24.08;;;13.55;;
23474;SDS011;11910;52.086;21.066;2023-02-26T16:51:26;22.40;;;13.15;;
23474;SDS011;11910;52.086;21.066;2023-02-26T16:53:56;19.70;;;12.00;;
23474;SDS011;11910;52.086;21.066;2023-02-26T16:56:26;19.75;;;11.40;;
23474;SDS011;11910;52.086;21.066;2023-02-26T17:04:22;16.83;;;10.55;;
23474;SDS011;11910;52.086;21.066;2023-02-26T17:06:52;17.95;;;9.77;;
23474;SDS011;11910;52.086;21.066;2023-02-26T17:09:23;17.27;;;10.05;;
23474;SDS011;11910;52.086;21.066;2023-02-26T17:14:54;20.40;;;11.60;;
23474;SDS011;11910;52.086;21.066;2023-02-26T17:17:22;22.08;;;13.52;;
23474;SDS011;11910;52.086;21.066;2023-02-26T17:19:48;23.70;;;14.27;;
23474;SDS011;11910;52.086;21.066;2023-02-26T17:22:14;24.98;;;14.10;;
23474;SDS011;11910;52.086;21.066;2023-02-26T17:24:43;28.48;;;15.88;;
23474;SDS011;11910;52.086;21.066;2023-02-26T17:27:17;29.48;;;18.05;;
23474;SDS011;11910;52.086;21.066;2023-02-26T17:29:51;38.22;;;20.30;;
23474;SDS011;11910;52.086;21.066;2023-02-26T17:32:18;35.15;;;20.10;;
23474;SDS011;11910;52.086;21.066;2023-02-26T17:34:46;34.63;;;20.40;;
23474;SDS011;11910;52.086;21.066;2023-02-26T17:37:12;35.58;;;20.20;;
23474;SDS011;11910;52.086;21.066;2023-02-26T17:39:38;38.70;;;21.25;;
23474;SDS011;11910;52.086;21.066;2023-02-26T17:42:11;37.92;;;21.60;;
23474;SDS011;11910;52.086;21.066;2023-02-26T17:44:38;41.25;;;22.15;;
23474;SDS011;11910;52.086;21.066;2023-02-26T17:47:04;54.85;;;27.45;;
23474;SDS011;11910;52.086;21.066;2023-02-26T17:49:30;50.45;;;27.67;;
23474;SDS011;11910;52.086;21.066;2023-02-26T17:51:55;58.88;;;30.75;;
23474;SDS011;11910;52.086;21.066;2023-02-26T17:54:21;54.85;;;27.83;;
23474;SDS011;11910;52.086;21.066;2023-02-26T17:56:47;50.92;;;27.35;;
23474;SDS011;11910;52.086;21.066;2023-02-26T17:59:13;53.00;;;28.77;;